KWWD/WWD METAR and TAF weather

Enter ICAO airport designator
Station Type Date Time Source
KWWD METAR 2021/05/12 00:56 UTC NOAA

KWWD 120056Z AUTO 00000KT 10SM OVC075 14/09 A3010 RMK AO2 SLP193 T01390094 $


Station Type Date Time Source
KWWD Decoded METAR 2021/05/12 00:56 UTC NOAA

Wildwood, Cape May County Airport, NJ, United States (KWWD) 39-01N 074-55W
May 11, 2021 - 08:56 PM EDT / 2021.05.12 0056 UTC
Wind: Calm:0
Visibility: 10 mile(s):0
Sky conditions: overcast
Temperature: 57.0 F (13.9 C)
Dew Point: 48.9 F (9.4 C)
Relative Humidity: 74%
Pressure (altimeter): 30.1 in. Hg (1019 hPa)
ob: KWWD 120056Z AUTO 00000KT 10SM OVC075 14/09 A3010 RMK AO2 SLP193 T01390094
cycle: 1

Station Type Date Time Source
KWWD TAF UTC NOAA

Error!

Example: see airport list